sensor_id;sensor_type;location;lat;lon;timestamp;pressure;altitude;pressure_sealevel;temperature;humidity
11190;BME280;5651;50.926;4.718;2023-03-18T00:02:21;100699.53;;;13.65;84.93
11190;BME280;5651;50.926;4.718;2023-03-18T00:04:47;100692.56;;;13.65;87.90
11190;BME280;5651;50.926;4.718;2023-03-18T00:07:13;100697.03;;;13.58;88.00
11190;BME280;5651;50.926;4.718;2023-03-18T00:09:39;100690.34;;;13.43;88.91
11190;BME280;5651;50.926;4.718;2023-03-18T00:12:05;100694.50;;;13.55;87.90
11190;BME280;5651;50.926;4.718;2023-03-18T00:14:31;100685.41;;;13.25;94.48
11190;BME280;5651;50.926;4.718;2023-03-18T00:16:59;100665.41;;;13.22;89.11
11190;BME280;5651;50.926;4.718;2023-03-18T00:19:25;100659.53;;;13.09;94.68
11190;BME280;5651;50.926;4.718;2023-03-18T00:21:51;100670.97;;;13.04;97.05
11190;BME280;5651;50.926;4.718;2023-03-18T00:24:17;100671.72;;;13.10;90.30
11190;BME280;5651;50.926;4.718;2023-03-18T00:26:43;100677.88;;;13.08;87.79
11190;BME280;5651;50.926;4.718;2023-03-18T00:29:09;100677.81;;;13.11;86.89
11190;BME280;5651;50.926;4.718;2023-03-18T00:31:36;100667.56;;;12.98;91.66
11190;BME280;5651;50.926;4.718;2023-03-18T00:34:03;100662.34;;;12.98;88.79
11190;BME280;5651;50.926;4.718;2023-03-18T00:36:29;100657.16;;;12.95;86.15
11190;BME280;5651;50.926;4.718;2023-03-18T00:38:56;100655.41;;;12.96;85.09
11190;BME280;5651;50.926;4.718;2023-03-18T00:41:24;100655.47;;;12.93;84.27
11190;BME280;5651;50.926;4.718;2023-03-18T00:43:50;100659.00;;;12.90;82.54
11190;BME280;5651;50.926;4.718;2023-03-18T00:46:24;100673.84;;;12.88;84.16
11190;BME280;5651;50.926;4.718;2023-03-18T00:48:52;100683.50;;;12.84;82.80
11190;BME280;5651;50.926;4.718;2023-03-18T00:51:20;100689.53;;;12.88;85.49
11190;BME280;5651;50.926;4.718;2023-03-18T00:53:51;100685.28;;;12.82;87.86
11190;BME280;5651;50.926;4.718;2023-03-18T00:56:19;100686.91;;;12.88;86.49
11190;BME280;5651;50.926;4.718;2023-03-18T00:58:50;100695.66;;;12.89;84.97
11190;BME280;5651;50.926;4.718;2023-03-18T01:01:17;100704.38;;;12.88;83.55
11190;BME280;5651;50.926;4.718;2023-03-18T01:03:45;100706.81;;;12.98;83.84
11190;BME280;5651;50.926;4.718;2023-03-18T01:06:18;100703.50;;;12.89;83.41
11190;BME280;5651;50.926;4.718;2023-03-18T01:08:49;100695.75;;;12.81;84.20
11190;BME280;5651;50.926;4.718;2023-03-18T01:11:17;100709.72;;;12.81;84.47
11190;BME280;5651;50.926;4.718;2023-03-18T01:13:43;100717.59;;;12.78;83.90
11190;BME280;5651;50.926;4.718;2023-03-18T01:16:09;100718.47;;;12.79;85.48
11190;BME280;5651;50.926;4.718;2023-03-18T01:18:37;100714.97;;;12.80;90.19
11190;BME280;5651;50.926;4.718;2023-03-18T01:21:03;100720.44;;;12.64;95.21
11190;BME280;5651;50.926;4.718;2023-03-18T01:23:29;100715.28;;;12.58;94.55
11190;BME280;5651;50.926;4.718;2023-03-18T01:25:56;100711.88;;;12.53;99.01
11190;BME280;5651;50.926;4.718;2023-03-18T01:28:22;100710.03;;;12.61;94.09
11190;BME280;5651;50.926;4.718;2023-03-18T01:30:48;100710.00;;;12.64;91.78
11190;BME280;5651;50.926;4.718;2023-03-18T01:33:15;100708.28;;;12.60;96.53
11190;BME280;5651;50.926;4.718;2023-03-18T01:35:41;100710.94;;;12.59;93.22
11190;BME280;5651;50.926;4.718;2023-03-18T01:38:07;100704.00;;;12.56;95.10
11190;BME280;5651;50.926;4.718;2023-03-18T01:40:36;100710.13;;;12.55;99.72
11190;BME280;5651;50.926;4.718;2023-03-18T01:43:18;100712.84;;;12.49;98.42
11190;BME280;5651;50.926;4.718;2023-03-18T01:45:53;100714.63;;;12.44;98.22
11190;BME280;5651;50.926;4.718;2023-03-18T01:48:22;100710.22;;;12.49;95.55
11190;BME280;5651;50.926;4.718;2023-03-18T01:50:58;100710.22;;;12.49;100.00
11190;BME280;5651;50.926;4.718;2023-03-18T01:53:28;100717.31;;;12.41;99.11
11190;BME280;5651;50.926;4.718;2023-03-18T01:55:56;100708.53;;;12.45;96.85
11190;BME280;5651;50.926;4.718;2023-03-18T01:58:33;100705.09;;;12.41;100.00
11190;BME280;5651;50.926;4.718;2023-03-18T02:01:05;100705.13;;;12.40;97.76
11190;BME280;5651;50.926;4.718;2023-03-18T02:03:32;100697.91;;;12.56;96.00
11190;BME280;5651;50.926;4.718;2023-03-18T02:05:58;100706.75;;;12.47;98.94
11190;BME280;5651;50.926;4.718;2023-03-18T02:08:24;100712.00;;;12.44;100.00
11190;BME280;5651;50.926;4.718;2023-03-18T02:10:50;100708.50;;;12.48;95.54
11190;BME280;5651;50.926;4.718;2023-03-18T02:13:17;100707.44;;;12.60;95.38
11190;BME280;5651;50.926;4.718;2023-03-18T02:15:50;100702.41;;;12.46;100.00
11190;BME280;5651;50.926;4.718;2023-03-18T02:18:20;100701.59;;;12.42;100.00
11190;BME280;5651;50.926;4.718;2023-03-18T02:20:59;100700.72;;;12.43;100.00
11190;BME280;5651;50.926;4.718;2023-03-18T02:23:56;100698.03;;;12.46;99.66
11190;BME280;5651;50.926;4.718;2023-03-18T02:29:11;100701.53;;;12.47;98.68
11190;BME280;5651;50.926;4.718;2023-03-18T02:31:39;100696.34;;;12.44;96.28
11190;BME280;5651;50.926;4.718;2023-03-18T02:34:08;100698.19;;;12.35;98.29
11190;BME280;5651;50.926;4.718;2023-03-18T02:36:35;100703.38;;;12.39;96.90
11190;BME280;5651;50.926;4.718;2023-03-18T02:39:02;100706.03;;;12.37;100.00
11190;BME280;5651;50.926;4.718;2023-03-18T02:41:32;100711.19;;;12.40;99.75
11190;BME280;5651;50.926;4.718;2023-03-18T02:43:58;100705.06;;;12.43;95.49
11190;BME280;5651;50.926;4.718;2023-03-18T02:47:04;100705.03;;;12.46;94.26
11190;BME280;5651;50.926;4.718;2023-03-18T02:49:23;100712.06;;;12.41;100.00
11190;BME280;5651;50.926;4.718;2023-03-18T02:51:50;100706.97;;;12.31;100.00
11190;BME280;5651;50.926;4.718;2023-03-18T02:54:22;100713.06;;;12.32;97.26
11190;BME280;5651;50.926;4.718;2023-03-18T02:56:48;100708.78;;;12.28;100.00
11190;BME280;5651;50.926;4.718;2023-03-18T02:59:14;100715.69;;;12.30;100.00
11190;BME280;5651;50.926;4.718;2023-03-18T03:01:42;100714.78;;;12.33;97.33
11190;BME280;5651;50.926;4.718;2023-03-18T03:04:09;100724.47;;;12.26;100.00
11190;BME280;5651;50.926;4.718;2023-03-18T03:06:37;100725.34;;;12.24;100.00
11190;BME280;5651;50.926;4.718;2023-03-18T03:09:05;100724.53;;;12.20;100.00
11190;BME280;5651;50.926;4.718;2023-03-18T03:11:31;100725.38;;;12.22;100.00
11190;BME280;5651;50.926;4.718;2023-03-18T03:13:57;100733.19;;;12.24;100.00
11190;BME280;5651;50.926;4.718;2023-03-18T03:16:24;100732.28;;;12.28;100.00
11190;BME280;5651;50.926;4.718;2023-03-18T03:18:50;100727.16;;;12.18;100.00
11190;BME280;5651;50.926;4.718;2023-03-18T03:21:16;100727.16;;;12.18;100.00
11190;BME280;5651;50.926;4.718;2023-03-18T03:23:42;100723.78;;;12.13;100.00
11190;BME280;5651;50.926;4.718;2023-03-18T03:26:08;100724.66;;;12.09;100.00
11190;BME280;5651;50.926;4.718;2023-03-18T03:28:34;100731.56;;;12.15;100.00
11190;BME280;5651;50.926;4.718;2023-03-18T03:31:01;100734.25;;;12.12;100.00
11190;BME280;5651;50.926;4.718;2023-03-18T03:33:27;100736.88;;;12.09;100.00
11190;BME280;5651;50.926;4.718;2023-03-18T03:35:53;100744.53;;;12.21;100.00
11190;BME280;5651;50.926;4.718;2023-03-18T03:38:20;100749.09;;;12.07;100.00
11190;BME280;5651;50.926;4.718;2023-03-18T03:40:47;100752.50;;;12.13;100.00
11190;BME280;5651;50.926;4.718;2023-03-18T03:43:13;100743.75;;;12.16;100.00
11190;BME280;5651;50.926;4.718;2023-03-18T03:45:41;100753.50;;;12.04;100.00
11190;BME280;5651;50.926;4.718;2023-03-18T03:48:08;100751.66;;;12.11;100.00
11190;BME280;5651;50.926;4.718;2023-03-18T03:50:35;100748.25;;;12.04;100.00
11190;BME280;5651;50.926;4.718;2023-03-18T03:53:02;100764.88;;;11.99;100.00
11190;BME280;5651;50.926;4.718;2023-03-18T03:55:29;100755.22;;;12.04;100.00
11190;BME280;5651;50.926;4.718;2023-03-18T03:57:55;100757.03;;;11.97;100.00
11190;BME280;5651;50.926;4.718;2023-03-18T04:00:22;100765.66;;;12.04;99.13
11190;BME280;5651;50.926;4.718;2023-03-18T04:02:50;100769.09;;;12.08;98.36
11190;BME280;5651;50.926;4.718;2023-03-18T04:05:18;100770.03;;;12.02;100.00
11190;BME280;5651;50.926;4.718;2023-03-18T04:07:46;100769.22;;;12.00;98.97
11190;BME280;5651;50.926;4.718;2023-03-18T04:10:14;100770.97;;;11.98;99.63
11190;BME280;5651;50.926;4.718;2023-03-18T04:12:41;100762.31;;;11.93;98.92
11190;BME280;5651;50.926;4.718;2023-03-18T04:15:08;100768.53;;;11.81;99.82
11190;BME280;5651;50.926;4.718;2023-03-18T04:17:34;100766.88;;;11.70;100.00
11190;BME280;5651;50.926;4.718;2023-03-18T04:20:00;100762.53;;;11.69;100.00
11190;BME280;5651;50.926;4.718;2023-03-18T04:22:26;100771.38;;;11.56;100.00
11190;BME280;5651;50.926;4.718;2023-03-18T04:24:52;100767.91;;;11.57;100.00
11190;BME280;5651;50.926;4.718;2023-03-18T04:27:18;100767.94;;;11.52;100.00
11190;BME280;5651;50.926;4.718;2023-03-18T04:29:44;100758.41;;;11.50;100.00
11190;BME280;5651;50.926;4.718;2023-03-18T04:32:11;100763.63;;;11.48;100.00
11190;BME280;5651;50.926;4.718;2023-03-18T04:34:37;100772.44;;;11.36;100.00
11190;BME280;5651;50.926;4.718;2023-03-18T04:37:03;100776.81;;;11.34;100.00
11190;BME280;5651;50.926;4.718;2023-03-18T04:39:29;100784.69;;;11.28;100.00
11190;BME280;5651;50.926;4.718;2023-03-18T04:41:55;100777.72;;;11.29;100.00
11190;BME280;5651;50.926;4.718;2023-03-18T04:44:24;100773.44;;;11.18;100.00
11190;BME280;5651;50.926;4.718;2023-03-18T04:46:51;100778.72;;;11.15;100.00
11190;BME280;5651;50.926;4.718;2023-03-18T04:49:18;100767.50;;;11.02;100.00
11190;BME280;5651;50.926;4.718;2023-03-18T04:51:44;100771.00;;;10.97;100.00
11190;BME280;5651;50.926;4.718;2023-03-18T04:54:11;100778.88;;;10.90;100.00
11190;BME280;5651;50.926;4.718;2023-03-18T04:56:37;100766.75;;;10.86;100.00
11190;BME280;5651;50.926;4.718;2023-03-18T04:59:04;100774.56;;;10.85;100.00
11190;BME280;5651;50.926;4.718;2023-03-18T05:01:30;100778.97;;;10.76;100.00
11190;BME280;5651;50.926;4.718;2023-03-18T05:03:56;100775.50;;;10.77;100.00
11190;BME280;5651;50.926;4.718;2023-03-18T05:06:28;100776.41;;;10.73;100.00
11190;BME280;5651;50.926;4.718;2023-03-18T05:08:54;100781.56;;;10.81;100.00
11190;BME280;5651;50.926;4.718;2023-03-18T05:11:21;100785.03;;;10.78;100.00
11190;BME280;5651;50.926;4.718;2023-03-18T05:13:48;100787.69;;;10.74;100.00
11190;BME280;5651;50.926;4.718;2023-03-18T05:16:14;100785.13;;;10.66;100.00
11190;BME280;5651;50.926;4.718;2023-03-18T05:18:40;100779.94;;;10.63;100.00
11190;BME280;5651;50.926;4.718;2023-03-18T05:21:07;100784.31;;;10.56;100.00
11190;BME280;5651;50.926;4.718;2023-03-18T05:23:34;100787.84;;;10.49;100.00
11190;BME280;5651;50.926;4.718;2023-03-18T05:26:01;100788.72;;;10.45;100.00
11190;BME280;5651;50.926;4.718;2023-03-18T05:28:28;100782.63;;;10.46;100.00
11190;BME280;5651;50.926;4.718;2023-03-18T05:30:54;100798.22;;;10.54;100.00
11190;BME280;5651;50.926;4.718;2023-03-18T05:33:20;100793.94;;;10.45;100.00
11190;BME280;5651;50.926;4.718;2023-03-18T05:35:46;100796.53;;;10.43;100.00
11190;BME280;5651;50.926;4.718;2023-03-18T05:38:12;100799.16;;;10.40;100.00
11190;BME280;5651;50.926;4.718;2023-03-18T05:40:39;100796.53;;;10.40;100.00
11190;BME280;5651;50.926;4.718;2023-03-18T05:43:05;100793.94;;;10.34;100.00
11190;BME280;5651;50.926;4.718;2023-03-18T05:45:31;100792.22;;;10.45;100.00
11190;BME280;5651;50.926;4.718;2023-03-18T05:47:56;100803.41;;;10.60;100.00
11190;BME280;5651;50.926;4.718;2023-03-18T05:50:36;100805.13;;;10.62;100.00
11190;BME280;5651;50.926;4.718;2023-03-18T05:53:03;100802.53;;;10.61;100.00
11190;BME280;5651;50.926;4.718;2023-03-18T05:55:31;100812.09;;;10.64;100.00
11190;BME280;5651;50.926;4.718;2023-03-18T05:57:57;100812.06;;;10.65;100.00
11190;BME280;5651;50.926;4.718;2023-03-18T06:00:23;100819.88;;;10.62;100.00
11190;BME280;5651;50.926;4.718;2023-03-18T06:02:50;100813.88;;;10.51;100.00
11190;BME280;5651;50.926;4.718;2023-03-18T06:05:19;100805.19;;;10.53;100.00
11190;BME280;5651;50.926;4.718;2023-03-18T06:07:46;100811.22;;;10.60;100.00
11190;BME280;5651;50.926;4.718;2023-03-18T06:10:12;100811.22;;;10.58;100.00
11190;BME280;5651;50.926;4.718;2023-03-18T06:12:38;100808.63;;;10.57;100.00
11190;BME280;5651;50.926;4.718;2023-03-18T06:15:07;100815.59;;;10.56;100.00
11190;BME280;5651;50.926;4.718;2023-03-18T06:17:34;100813.00;;;10.53;100.00
11190;BME280;5651;50.926;4.718;2023-03-18T06:20:00;100816.44;;;10.54;100.00
11190;BME280;5651;50.926;4.718;2023-03-18T06:22:26;100819.94;;;10.51;100.00
11190;BME280;5651;50.926;4.718;2023-03-18T06:24:52;100821.66;;;10.57;100.00
11190;BME280;5651;50.926;4.718;2023-03-18T06:27:18;100823.41;;;10.55;100.00
11190;BME280;5651;50.926;4.718;2023-03-18T06:29:44;100821.72;;;10.49;100.00
11190;BME280;5651;50.926;4.718;2023-03-18T06:32:11;100823.47;;;10.45;100.00
11190;BME280;5651;50.926;4.718;2023-03-18T06:34:37;100824.34;;;10.44;100.00
11190;BME280;5651;50.926;4.718;2023-03-18T06:37:03;100827.78;;;10.48;100.00
11190;BME280;5651;50.926;4.718;2023-03-18T06:39:29;100828.69;;;10.45;100.00
11190;BME280;5651;50.926;4.718;2023-03-18T06:41:55;100833.88;;;10.45;100.00
11190;BME280;5651;50.926;4.718;2023-03-18T06:44:21;100837.34;;;10.49;100.00
11190;BME280;5651;50.926;4.718;2023-03-18T06:46:47;100845.13;;;10.52;100.00
11190;BME280;5651;50.926;4.718;2023-03-18T06:49:13;100839.06;;;10.52;100.00
11190;BME280;5651;50.926;4.718;2023-03-18T06:51:40;100847.72;;;10.54;100.00
11190;BME280;5651;50.926;4.718;2023-03-18T06:54:07;100845.13;;;10.52;100.00
11190;BME280;5651;50.926;4.718;2023-03-18T06:56:34;100839.06;;;10.52;100.00
11190;BME280;5651;50.926;4.718;2023-03-18T06:59:04;100836.41;;;10.59;100.00
11190;BME280;5651;50.926;4.718;2023-03-18T07:01:30;100831.19;;;10.59;100.00
11190;BME280;5651;50.926;4.718;2023-03-18T07:03:58;100825.09;;;10.62;100.00
11190;BME280;5651;50.926;4.718;2023-03-18T07:06:26;100832.94;;;10.60;100.00
11190;BME280;5651;50.926;4.718;2023-03-18T07:08:52;100829.44;;;10.63;100.00
11190;BME280;5651;50.926;4.718;2023-03-18T07:11:19;100839.81;;;10.72;100.00
11190;BME280;5651;50.926;4.718;2023-03-18T07:13:44;100843.28;;;10.76;100.00
11190;BME280;5651;50.926;4.718;2023-03-18T07:16:10;100841.53;;;10.78;100.00
11190;BME280;5651;50.926;4.718;2023-03-18T07:18:36;100841.50;;;10.84;100.00
11190;BME280;5651;50.926;4.718;2023-03-18T07:21:03;100832.69;;;10.99;100.00
11190;BME280;5651;50.926;4.718;2023-03-18T07:23:29;100842.22;;;11.05;100.00
11190;BME280;5651;50.926;4.718;2023-03-18T07:25:55;100847.31;;;11.22;100.00
11190;BME280;5651;50.926;4.718;2023-03-18T07:28:20;100850.72;;;11.36;100.00
11190;BME280;5651;50.926;4.718;2023-03-18T07:30:46;100853.25;;;11.41;100.00
11190;BME280;5651;50.926;4.718;2023-03-18T07:33:12;100849.69;;;11.56;100.00
11190;BME280;5651;50.926;4.718;2023-03-18T07:35:38;100851.38;;;11.62;100.00
11190;BME280;5651;50.926;4.718;2023-03-18T07:38:09;100858.28;;;11.69;100.00
11190;BME280;5651;50.926;4.718;2023-03-18T07:40:36;100856.41;;;11.82;100.00
11190;BME280;5651;50.926;4.718;2023-03-18T07:43:03;100848.53;;;11.85;100.00
11190;BME280;5651;50.926;4.718;2023-03-18T07:45:29;100857.13;;;11.95;100.00
11190;BME280;5651;50.926;4.718;2023-03-18T07:47:56;100858.78;;;12.07;100.00
11190;BME280;5651;50.926;4.718;2023-03-18T07:50:22;100863.94;;;12.14;100.00
11190;BME280;5651;50.926;4.718;2023-03-18T07:52:48;100857.75;;;12.23;100.00
11190;BME280;5651;50.926;4.718;2023-03-18T07:55:14;100859.38;;;12.32;100.00
11190;BME280;5651;50.926;4.718;2023-03-18T07:57:40;100860.16;;;12.42;100.00
11190;BME280;5651;50.926;4.718;2023-03-18T08:00:07;100862.69;;;12.48;100.00
11190;BME280;5651;50.926;4.718;2023-03-18T08:02:35;100851.22;;;12.58;100.00
11190;BME280;5651;50.926;4.718;2023-03-18T08:05:02;100854.66;;;12.63;100.00
11190;BME280;5651;50.926;4.718;2023-03-18T08:07:28;100852.84;;;12.68;100.00
11190;BME280;5651;50.926;4.718;2023-03-18T08:09:55;100851.97;;;12.66;100.00
11190;BME280;5651;50.926;4.718;2023-03-18T08:12:21;100856.41;;;12.61;100.00
11190;BME280;5651;50.926;4.718;2023-03-18T08:14:46;100853.91;;;12.54;100.00
11190;BME280;5651;50.926;4.718;2023-03-18T08:17:13;100853.00;;;12.56;100.00
11190;BME280;5651;50.926;4.718;2023-03-18T08:19:39;100860.78;;;12.61;100.00
11190;BME280;5651;50.926;4.718;2023-03-18T08:22:05;100864.16;;;12.67;100.00
11190;BME280;5651;50.926;4.718;2023-03-18T08:24:30;100861.31;;;12.86;100.00
11190;BME280;5651;50.926;4.718;2023-03-18T08:26:57;100866.53;;;12.88;100.00
11190;BME280;5651;50.926;4.718;2023-03-18T08:29:23;100866.38;;;12.98;100.00
11190;BME280;5651;50.926;4.718;2023-03-18T08:31:49;100864.59;;;13.00;100.00
11190;BME280;5651;50.926;4.718;2023-03-18T08:34:15;100867.84;;;13.16;100.00
11190;BME280;5651;50.926;4.718;2023-03-18T08:36:43;100865.94;;;13.28;100.00
11190;BME280;5651;50.926;4.718;2023-03-18T08:39:09;100867.69;;;13.27;100.00
11190;BME280;5651;50.926;4.718;2023-03-18T08:41:35;100877.03;;;13.45;100.00
11190;BME280;5651;50.926;4.718;2023-03-18T08:44:02;100875.22;;;13.49;100.00
11190;BME280;5651;50.926;4.718;2023-03-18T08:46:31;100875.09;;;13.57;100.00
11190;BME280;5651;50.926;4.718;2023-03-18T08:48:56;100879.31;;;13.66;100.00
11190;BME280;5651;50.926;4.718;2023-03-18T08:51:24;100886.50;;;13.54;100.00
11190;BME280;5651;50.926;4.718;2023-03-18T08:53:50;100879.16;;;13.75;100.00
11190;BME280;5651;50.926;4.718;2023-03-18T08:56:16;100887.00;;;13.78;100.00
11190;BME280;5651;50.926;4.718;2023-03-18T08:58:42;100878.88;;;13.92;99.86
11190;BME280;5651;50.926;4.718;2023-03-18T09:01:11;100878.66;;;14.03;97.94
11190;BME280;5651;50.926;4.718;2023-03-18T09:03:37;100876.81;;;14.09;97.47
11190;BME280;5651;50.926;4.718;2023-03-18T09:06:03;100864.44;;;14.16;98.68
11190;BME280;5651;50.926;4.718;2023-03-18T09:08:29;100862.22;;;14.40;94.74
11190;BME280;5651;50.926;4.718;2023-03-18T09:10:56;100858.84;;;14.35;96.52
11190;BME280;5651;50.926;4.718;2023-03-18T09:13:22;100856.97;;;14.40;96.29
11190;BME280;5651;50.926;4.718;2023-03-18T09:15:48;100857.69;;;14.50;96.07
11190;BME280;5651;50.926;4.718;2023-03-18T09:18:15;100853.22;;;14.53;95.41
11190;BME280;5651;50.926;4.718;2023-03-18T09:20:43;100862.56;;;14.65;93.76
11190;BME280;5651;50.926;4.718;2023-03-18T09:23:11;100864.84;;;14.40;95.13
11190;BME280;5651;50.926;4.718;2023-03-18T09:25:38;100865.56;;;14.48;94.72
11190;BME280;5651;50.926;4.718;2023-03-18T09:28:04;100874.06;;;14.60;93.98
11190;BME280;5651;50.926;4.718;2023-03-18T09:30:30;100870.72;;;14.53;94.63
11190;BME280;5651;50.926;4.718;2023-03-18T09:32:57;100862.56;;;14.65;93.10
11190;BME280;5651;50.926;4.718;2023-03-18T09:35:23;100865.97;;;14.72;93.23
11190;BME280;5651;50.926;4.718;2023-03-18T09:37:49;100854.69;;;14.68;94.51
11190;BME280;5651;50.926;4.718;2023-03-18T09:40:28;100865.19;;;14.65;95.86
11190;BME280;5651;50.926;4.718;2023-03-18T09:43:12;100872.63;;;14.88;92.98
11190;BME280;5651;50.926;4.718;2023-03-18T09:45:45;100867.06;;;15.02;90.93
11190;BME280;5651;50.926;4.718;2023-03-18T09:50:58;100869.38;;;14.76;93.42
11190;BME280;5651;50.926;4.718;2023-03-18T09:56:01;100864.00;;;14.83;91.10
11190;BME280;5651;50.926;4.718;2023-03-18T09:58:45;100877.09;;;14.83;90.75
11190;BME280;5651;50.926;4.718;2023-03-18T10:01:15;100878.00;;;14.82;91.39
11190;BME280;5651;50.926;4.718;2023-03-18T10:04:38;100877.41;;;14.69;92.21
11190;BME280;5651;50.926;4.718;2023-03-18T10:06:36;100887.78;;;14.74;91.12
11190;BME280;5651;50.926;4.718;2023-03-18T10:09:12;100886.81;;;14.80;90.02
11190;BME280;5651;50.926;4.718;2023-03-18T10:11:42;100887.84;;;14.72;89.48
11190;BME280;5651;50.926;4.718;2023-03-18T10:19:44;100891.88;;;14.43;91.10
11190;BME280;5651;50.926;4.718;2023-03-18T10:39:14;100902.66;;;14.28;91.40
11190;BME280;5651;50.926;4.718;2023-03-18T10:41:41;100909.50;;;14.35;91.02
11190;BME280;5651;50.926;4.718;2023-03-18T10:44:27;100910.47;;;14.31;90.98
11190;BME280;5651;50.926;4.718;2023-03-18T10:47:17;100922.44;;;14.45;90.09
11190;BME280;5651;50.926;4.718;2023-03-18T10:52:34;100917.78;;;14.14;91.26
11190;BME280;5651;50.926;4.718;2023-03-18T10:55:02;100929.06;;;14.17;91.06
11190;BME280;5651;50.926;4.718;2023-03-18T10:57:29;100928.28;;;14.12;91.52
11190;BME280;5651;50.926;4.718;2023-03-18T10:59:55;100925.00;;;14.01;92.52
11190;BME280;5651;50.926;4.718;2023-03-18T11:02:34;100929.13;;;14.14;90.97
11190;BME280;5651;50.926;4.718;2023-03-18T11:05:04;100921.63;;;13.94;92.10
11190;BME280;5651;50.926;4.718;2023-03-18T11:08:00;100919.81;;;13.98;91.54
11190;BME280;5651;50.926;4.718;2023-03-18T11:10:44;100935.47;;;14.02;90.39
11190;BME280;5651;50.926;4.718;2023-03-18T11:13:16;100927.66;;;13.98;91.07
11190;BME280;5651;50.926;4.718;2023-03-18T11:15:54;100926.97;;;13.88;91.33
11190;BME280;5651;50.926;4.718;2023-03-18T11:18:23;100927.91;;;13.84;91.81
11190;BME280;5651;50.926;4.718;2023-03-18T11:20:58;100925.94;;;13.97;90.89
11190;BME280;5651;50.926;4.718;2023-03-18T11:23:32;100922.31;;;14.04;90.24
11190;BME280;5651;50.926;4.718;2023-03-18T11:26:28;100918.94;;;13.99;91.43
11190;BME280;5651;50.926;4.718;2023-03-18T11:29:09;100921.59;;;13.97;90.94
11190;BME280;5651;50.926;4.718;2023-03-18T11:31:53;100920.59;;;14.03;90.43
11190;BME280;5651;50.926;4.718;2023-03-18T11:34:31;100923.13;;;14.07;89.63
11190;BME280;5651;50.926;4.718;2023-03-18T11:37:02;100921.47;;;14.03;91.03
11190;BME280;5651;50.926;4.718;2023-03-18T11:39:38;100918.78;;;14.06;91.18
11190;BME280;5651;50.926;4.718;2023-03-18T11:42:19;100920.91;;;14.34;89.08
11190;BME280;5651;50.926;4.718;2023-03-18T11:44:47;100920.78;;;14.39;89.88
11190;BME280;5651;50.926;4.718;2023-03-18T11:47:22;100918.28;;;14.34;91.28
11190;BME280;5651;50.926;4.718;2023-03-18T11:49:51;100921.34;;;14.56;91.30
11190;BME280;5651;50.926;4.718;2023-03-18T11:52:53;100916.56;;;14.79;92.23
11190;BME280;5651;50.926;4.718;2023-03-18T11:55:38;100909.84;;;15.04;92.92
11190;BME280;5651;50.926;4.718;2023-03-18T12:03:50;100900.81;;;15.92;90.73
11190;BME280;5651;50.926;4.718;2023-03-18T12:06:26;100894.19;;;16.11;90.03
11190;BME280;5651;50.926;4.718;2023-03-18T12:19:41;100897.50;;;16.50;86.92
11190;BME280;5651;50.926;4.718;2023-03-18T12:44:30;100869.59;;;19.28;75.36
11190;BME280;5651;50.926;4.718;2023-03-18T12:50:01;100872.75;;;18.92;72.99
11190;BME280;5651;50.926;4.718;2023-03-18T12:52:45;100871.94;;;19.14;74.10
11190;BME280;5651;50.926;4.718;2023-03-18T13:00:18;100865.28;;;18.80;70.40
11190;BME280;5651;50.926;4.718;2023-03-18T13:02:57;100872.56;;;18.97;69.38
11190;BME280;5651;50.926;4.718;2023-03-18T13:05:45;100860.44;;;19.58;67.99
11190;BME280;5651;50.926;4.718;2023-03-18T13:11:33;100864.25;;;19.93;70.94
11190;BME280;5651;50.926;4.718;2023-03-18T13:14:10;100861.56;;;20.35;68.86
11190;BME280;5651;50.926;4.718;2023-03-18T13:16:39;100861.81;;;20.48;66.73
11190;BME280;5651;50.926;4.718;2023-03-18T13:19:07;100862.72;;;20.67;62.66
11190;BME280;5651;50.926;4.718;2023-03-18T13:21:39;100858.56;;;21.00;65.53
11190;BME280;5651;50.926;4.718;2023-03-18T13:24:12;100852.22;;;21.39;62.74
11190;BME280;5651;50.926;4.718;2023-03-18T13:29:55;100845.34;;;22.05;62.72
11190;BME280;5651;50.926;4.718;2023-03-18T13:38:24;100842.94;;;22.00;56.94
11190;BME280;5651;50.926;4.718;2023-03-18T13:43:26;100842.38;;;22.45;54.58
11190;BME280;5651;50.926;4.718;2023-03-18T13:45:54;100840.66;;;20.86;55.58
11190;BME280;5651;50.926;4.718;2023-03-18T13:48:28;100843.91;;;21.82;56.86
11190;BME280;5651;50.926;4.718;2023-03-18T13:50:57;100833.25;;;21.99;57.33
11190;BME280;5651;50.926;4.718;2023-03-18T13:53:38;100828.41;;;22.08;55.64
11190;BME280;5651;50.926;4.718;2023-03-18T13:56:25;100832.97;;;22.55;54.84
11190;BME280;5651;50.926;4.718;2023-03-18T13:58:52;100843.84;;;22.67;51.51
11190;BME280;5651;50.926;4.718;2023-03-18T14:01:33;100844.28;;;22.25;50.69
11190;BME280;5651;50.926;4.718;2023-03-18T14:04:18;100833.50;;;21.42;51.01
11190;BME280;5651;50.926;4.718;2023-03-18T14:06:53;100837.72;;;21.46;49.77
11190;BME280;5651;50.926;4.718;2023-03-18T14:14:55;100839.47;;;19.53;52.58
11190;BME280;5651;50.926;4.718;2023-03-18T14:22:52;100837.16;;;20.28;53.82
11190;BME280;5651;50.926;4.718;2023-03-18T14:28:14;100834.59;;;20.06;52.55
11190;BME280;5651;50.926;4.718;2023-03-18T14:30:48;100844.59;;;19.99;51.77
11190;BME280;5651;50.926;4.718;2023-03-18T14:35:52;100827.94;;;19.76;53.42
11190;BME280;5651;50.926;4.718;2023-03-18T14:40:58;100806.38;;;19.65;54.91
11190;BME280;5651;50.926;4.718;2023-03-18T14:43:42;100810.09;;;20.59;55.15
11190;BME280;5651;50.926;4.718;2023-03-18T14:46:16;100800.69;;;21.27;54.17
11190;BME280;5651;50.926;4.718;2023-03-18T14:48:42;100810.00;;;22.05;54.95
11190;BME280;5651;50.926;4.718;2023-03-18T14:51:15;100808.34;;;22.02;50.05
11190;BME280;5651;50.926;4.718;2023-03-18T14:53:45;100803.09;;;22.34;50.15
11190;BME280;5651;50.926;4.718;2023-03-18T14:56:19;100797.75;;;22.68;47.48
11190;BME280;5651;50.926;4.718;2023-03-18T14:58:46;100797.19;;;22.93;48.70
11190;BME280;5651;50.926;4.718;2023-03-18T15:01:13;100799.53;;;22.99;46.88